Latest Weather Observations for Tasman Island

IDT60801

Issued at 8:31 am EST Monday 27 June 2016 (issued every 30 minutes, with the page automatically refreshed every 10 minutes)

About weather observations | Map of weather stations | Latest weather observations for TAS | Other Formats
Station Details ID: 094155 Name: TASMAN ISLAND Lat: -43.24 Lon: 148.00 Height: 240.0 m
Data from the previous 72 hours. | See also: Recent months at Tasman Island
Date/Time
EST
Temp
°C
App
Temp
°C
Dew
Point
Rel
Hum
%
Delta-T
°C
Wind Press
QNH
hPa
Press
MSL
hPa
Rain
since 9 am
mm
Dir
 
Spd
km/h
Gust
km/h
Spd
kts
Gust
kts
27/08:30am 8.2 5.3 4.6 78 1.6 NW 9 22 5 12 1010.4 1010.6 0.0
27/08:00am 7.9 5.4 4.7 80 1.4 NW 7 22 4 12 1010.1 1010.3 0.0
27/07:30am 7.5 5.2 4.6 82 1.3 WNW 6 20 3 11 1009.8 1010.1 0.0
27/07:00am 7.8 5.0 5.1 83 1.2 WNW 9 24 5 13 1009.5 1009.8 0.0
27/06:30am 7.7 5.3 5.2 84 1.1 WNW 7 19 4 10 1009.1 1009.4 0.0
27/06:00am 7.7 5.4 5.0 83 1.2 WNW 6 20 3 11 1009.1 1009.4 0.0
27/05:30am 8.0 4.8 4.9 81 1.4 WNW 11 28 6 15 1008.6 1008.9 0.0
27/05:00am 8.1 4.9 4.9 80 1.4 NW 11 24 6 13 1008.6 1008.9 0.0
27/04:30am 8.3 4.7 4.9 79 1.5 NW 13 35 7 19 1008.5 1008.8 0.0
27/04:00am 8.5 5.3 5.1 79 1.5 WNW 11 30 6 16 1008.6 1008.9 0.0
27/03:30am 8.9 6.7 5.3 78 1.6 WNW 6 20 3 11 1008.5 1008.8 0.0
27/03:00am 8.8 6.5 4.8 76 1.8 SSE 6 19 3 10 1008.6 1008.9 0.0
27/02:30am 8.7 6.1 4.1 73 2.0 W 7 24 4 13 1008.6 1008.9 0.0
27/02:00am 8.7 6.0 3.9 72 2.1 W 7 20 4 11 1008.3 1008.6 0.0
27/01:30am 8.9 3.9 3.5 69 2.4 WNW 19 32 10 17 1008.2 1008.5 0.0
27/01:00am 9.1 3.1 3.1 66 2.6 WNW 24 44 13 24 1008.0 1008.3 0.0
27/12:30am 9.3 2.9 3.3 66 2.6 WNW 26 46 14 25 1008.0 1008.3 0.0
27/12:00am 9.3 4.0 2.9 64 2.8 WNW 20 32 11 17 1008.1 1008.4 0.0
 
Date/Time
EST
Temp
°C
App
Temp
°C
Dew
Point
Rel
Hum
%
Delta-T
°C
Wind Press
QNH
hPa
Press
MSL
hPa
Rain
since 9 am
mm
Dir
 
Spd
km/h
Gust
km/h
Spd
kts
Gust
kts
26/11:41pm 9.4 2.6 2.9 64 2.8 WNW 28 48 15 26 1007.9 1008.1 0.0
26/11:30pm 9.5 3.8 3.0 64 2.8 WNW 22 56 12 30 1007.9 1008.1 0.0
26/11:00pm 9.4 3.6 2.5 62 3.0 NW 22 39 12 21 1008.1 1008.4 0.0
26/10:30pm 9.2 4.1 2.8 64 2.8 NNW 19 32 10 17 1008.2 1008.5 0.0
26/10:00pm 9.1 3.4 2.9 65 2.7 NNW 22 33 12 18 1008.3 1008.6 0.0
26/09:30pm 9.0 2.1 2.8 65 2.7 NW 28 50 15 27 1008.4 1008.7 0.0
26/09:26pm 9.0 2.1 2.8 65 2.7 NNW 28 50 15 27 1008.4 1008.7 0.0
26/09:00pm 9.0 1.8 2.8 65 2.7 NNW 30 44 16 24 1008.7 1009.0 0.0
26/08:30pm 9.5 3.1 3.3 65 2.7 NNW 26 39 14 21 1008.8 1009.1 0.0
26/08:00pm 9.7 1.5 2.8 62 3.0 NW 35 46 19 25 1009.0 1009.3 0.0
26/07:30pm 10.3 2.1 2.7 59 3.3 NW 35 50 19 27 1009.1 1009.4 0.0
26/07:00pm 9.7 3.6 3.0 63 2.9 NNW 24 35 13 19 1009.2 1009.5 0.0
26/06:30pm 10.3 2.5 2.7 59 3.3 NW 33 46 18 25 1009.2 1009.5 0.0
26/06:00pm 10.4 2.5 2.5 58 3.4 NW 33 44 18 24 1009.2 1009.5 0.0
26/05:30pm 10.3 3.8 2.9 60 3.2 NW 26 35 14 19 1009.3 1009.6 0.0
26/05:00pm 10.3 2.5 3.1 61 3.2 NW 33 46 18 25 1009.3 1009.6 0.0
26/04:30pm 10.5 3.5 4.0 64 2.9 NW 30 46 16 25 1009.3 1009.6 0.0
26/04:00pm 10.7 2.8 4.2 64 2.9 NW 35 46 19 25 1009.5 1009.8 0.0
26/03:30pm 10.5 3.6 4.4 66 2.8 NW 30 43 16 23 1009.8 1010.1 0.0
26/03:00pm 10.5 4.7 4.6 67 2.7 NW 24 35 13 19 1010.1 1010.3 0.0
26/02:30pm 10.3 4.2 4.7 68 2.6 NNW 26 41 14 22 1010.3 1010.5 0.0
26/02:00pm 10.1 5.2 4.9 70 2.4 NNW 20 33 11 18 1010.5 1010.7 0.0
26/01:30pm 9.9 5.1 4.9 71 2.3 NNW 19 30 10 16 1010.9 1011.1 0.0
26/01:00pm 9.9 5.0 4.9 71 2.3 NW 20 32 11 17 1011.3 1011.5 0.0
26/12:30pm 9.9 5.0 4.9 71 2.3 NNW 20 30 11 16 1011.6 1011.9 0.0
26/12:00pm 10.3 6.7 4.9 69 2.5 NW 13 24 7 13 1012.2 1012.5 0.0
26/11:30am 11.3 6.7 5.6 68 2.7 NNW 19 28 10 15 1012.7 1013.0 0.0
26/11:00am 11.1 6.5 5.4 68 2.7 NW 19 28 10 15 1013.1 1013.4 0.0
26/10:30am 10.7 7.3 5.7 71 2.3 NNW 13 22 7 12 1013.7 1014.0 0.0
26/10:00am 9.8 6.2 5.2 73 2.1 NNW 13 19 7 10 1013.9 1014.2 0.0
26/09:30am 8.7 5.8 4.5 75 1.9 NNW 9 13 5 7 1014.0 1014.3 0.0
26/09:00am 9.9 5.5 4.7 70 2.4 NW 17 20 9 11 1014.0 1014.3 1.4
26/08:30am 9.5 5.8 4.5 71 2.3 WNW 13 26 7 14 1014.1 1014.4 1.4
26/08:00am 9.0 6.1 4.6 74 2.0 WNW 9 24 5 13 1014.0 1014.3 1.4
26/07:30am 8.4 5.1 4.6 77 1.7 WNW 11 20 6 11 1014.1 1014.4 1.4
26/07:00am 8.4 4.0 4.8 78 1.6 WNW 17 30 9 16 1014.1 1014.4 1.4
26/06:30am 8.4 5.6 5.0 79 1.5 WNW 9 20 5 11 1013.9 1014.2 1.4
26/06:00am 8.3 5.4 4.9 79 1.5 WNW 9 24 5 13 1013.8 1014.1 1.4
26/05:30am 8.3 4.0 5.1 80 1.4 NW 17 30 9 16 1013.6 1013.9 1.4
26/05:00am 8.2 4.2 5.1 81 1.4 WNW 15 30 8 16 1013.5 1013.8 1.4
26/04:30am 8.0 5.1 4.9 81 1.4 WNW 9 22 5 12 1013.5 1013.8 1.4
26/04:00am 8.1 5.6 5.0 81 1.4 NW 7 26 4 14 1013.6 1013.9 1.4
26/03:30am 7.9 5.6 4.8 81 1.4 WNW 6 20 3 11 1013.6 1013.9 1.4
26/03:00am 8.2 5.3 4.8 79 1.5 W 9 24 5 13 1013.9 1014.2 1.4
26/02:30am 8.2 5.0 5.0 80 1.4 WNW 11 24 6 13 1013.9 1014.2 1.4
26/02:00am 8.2 5.1 5.5 83 1.2 WNW 11 32 6 17 1014.0 1014.3 1.4
26/01:30am 8.1 4.3 5.7 85 1.1 WNW 15 28 8 15 1014.0 1014.3 1.4
26/01:00am 8.0 5.2 5.3 83 1.2 WNW 9 26 5 14 1014.2 1014.5 1.4
26/12:30am 7.9 5.2 5.5 85 1.1 WNW 9 24 5 13 1014.3 1014.6 1.4
26/12:00am 7.6 4.9 5.6 87 0.9 WNW 9 24 5 13 1014.9 1015.1 1.4
 
Date/Time
EST
Temp
°C
App
Temp
°C
Dew
Point
Rel
Hum
%
Delta-T
°C
Wind Press
QNH
hPa
Press
MSL
hPa
Rain
since 9 am
mm
Dir
 
Spd
km/h
Gust
km/h
Spd
kts
Gust
kts
25/11:30pm 7.7 4.2 5.5 86 1.0 W 13 26 7 14 1014.9 1015.1 1.4
25/11:00pm 7.4 5.6 5.4 87 0.9 NW 4 17 2 9 1014.9 1015.1 1.4
25/10:30pm 7.4 5.6 5.5 88 0.9 NW 4 17 2 9 1015.0 1015.3 1.4
25/10:00pm 7.7 5.5 5.5 86 1.0 W 6 22 3 12 1015.2 1015.5 1.4
25/09:30pm 8.0 4.5 5.5 84 1.1 WNW 13 28 7 15 1015.4 1015.7 1.4
25/09:00pm 7.7 4.5 5.2 84 1.1 W 11 24 6 13 1015.4 1015.7 1.4
25/08:30pm 7.5 5.2 4.6 82 1.3 W 6 20 3 11 1015.5 1015.8 1.4
25/08:00pm 7.5 5.1 4.5 81 1.3 NNW 6 17 3 9 1015.7 1016.0 1.4
25/07:30pm 7.3 5.0 4.6 83 1.2 WNW 6 20 3 11 1015.7 1016.0 1.4
25/07:00pm 7.5 4.7 5.1 85 1.1 WSW 9 19 5 10 1015.9 1016.2 1.4
25/06:30pm 7.2 3.8 4.2 81 1.3 WNW 11 24 6 13 1015.9 1016.2 1.4
25/06:00pm 7.3 4.7 4.1 80 1.4 W 7 19 4 10 1015.8 1016.1 1.4
25/05:30pm 7.1 4.4 3.7 79 1.5 W 7 20 4 11 1015.7 1016.0 1.4
25/05:00pm 7.2 4.1 3.8 79 1.5 NNW 9 24 5 13 1015.6 1015.9 1.4
25/04:30pm 7.5 4.5 3.9 78 1.6 W 9 30 5 16 1015.4 1015.7 1.4
25/04:00pm 8.0 5.4 4.0 76 1.8 W 7 20 4 11 1015.4 1015.7 1.4
25/03:30pm 8.0 5.3 3.8 75 1.8 N 7 26 4 14 1015.2 1015.5 1.4
25/03:00pm 7.8 5.1 3.7 75 1.8 NW 7 26 4 14 1015.0 1015.3 1.4
25/02:30pm 7.5 4.1 4.1 79 1.5 WNW 11 30 6 16 1015.0 1015.3 1.4
25/02:00pm 7.3 3.9 3.9 79 1.5 SW 11 39 6 21 1015.0 1015.3 1.4
25/01:30pm 7.0 4.1 4.7 85 1.0 WSW 9 28 5 15 1015.0 1015.3 1.4
25/01:00pm 6.1 2.8 4.3 88 0.8 W 11 41 6 22 1015.2 1015.5 1.4
25/12:30pm 6.3 1.3 3.8 84 1.1 WSW 19 43 10 23 1015.1 1015.4 1.2
25/12:00pm 6.4 3.4 4.2 86 1.0 W 9 26 5 14 1015.4 1015.7 1.0
25/11:30am 6.6 3.2 3.8 82 1.2 NNW 11 41 6 22 1015.4 1015.7 1.0
25/11:00am 6.6 2.9 4.3 85 1.0 SW 13 32 7 17 1015.4 1015.7 1.0
25/10:30am 5.9 2.8 3.7 86 0.9 N 9 26 5 14 1015.4 1015.7 1.0
25/10:00am 5.3 1.1 3.6 89 0.7 WSW 15 43 8 23 1015.6 1015.9 1.0
25/09:30am 4.8 0.2 3.5 91 0.5 SW 17 41 9 22 1015.1 1015.4 0.8
25/09:00am 5.6 0.5 3.9 89 0.7 SSW 20 54 11 29 1014.5 1014.7 5.4
25/08:30am 4.5 -1.9 3.0 90 0.6 SW 26 56 14 30 1014.7 1014.9 5.4
25/08:11am 4.3 -2.6 2.7 89 0.7 SSW 28 48 15 26 1014.3 1014.6 4.8
25/08:00am 4.3 -0.4 3.0 91 0.5 SSW 17 54 9 29 1014.0 1014.3 4.6
25/07:30am 4.6 -2.2 3.3 91 0.5 SW 28 44 15 24 1013.9 1014.2 4.6
25/07:03am 4.1 -1.0 2.9 92 0.5 S 19 56 10 30 1013.7 1014.0 4.0
25/07:00am 4.7 1.2 3.7 93 0.4 SSW 11 48 6 26 1013.5 1013.8 3.8
25/06:30am 4.3 -0.4 3.1 92 0.5 SW 17 48 9 26 1013.1 1013.4 3.6
25/06:09am 4.1 -1.1 2.6 90 0.6 SSE 19 57 10 31 1012.9 1013.2 3.4
25/06:00am 4.6 -0.1 3.1 90 0.6 SSW 17 39 9 21 1012.5 1012.8 2.8
25/05:30am 4.6 -0.2 2.5 86 0.9 W 17 41 9 22 1012.2 1012.5 2.6
25/05:00am 4.5 -2.0 2.5 87 0.8 WSW 26 52 14 28 1011.8 1012.1 2.4
25/04:30am 5.2 1.1 2.0 80 1.3 W 13 35 7 19 1011.5 1011.8 2.4
25/04:00am 5.3 1.1 1.6 77 1.5 W 13 46 7 25 1011.2 1011.4 2.4
25/03:30am 5.2 -0.1 1.9 79 1.3 WSW 19 46 10 25 1011.0 1011.2 2.4
25/03:00am 4.6 -1.3 1.5 80 1.2 SW 22 48 12 26 1010.8 1011.0 2.4
25/02:46am 5.0 0.1 2.0 81 1.2 W 17 52 9 28 1010.5 1010.7 2.4
25/02:30am 5.1 0.2 1.9 80 1.3 WSW 17 48 9 26 1010.7 1010.9 2.4
25/02:00am 4.9 -0.8 2.8 86 0.9 SW 22 44 12 24 1010.4 1010.6 2.4
25/01:30am 5.0 -0.8 2.2 82 1.1 WSW 22 54 12 29 1009.5 1009.8 2.4
25/01:00am 4.7 1.3 1.9 82 1.1 SW 9 30 5 16 1009.2 1009.5 2.4
25/12:30am 4.8 1.5 2.3 84 1.0 SSW 9 26 5 14 1008.9 1009.2 2.4
25/12:00am 4.2 0.1 2.2 87 0.8 ENE 13 28 7 15 1008.3 1008.6 2.4
 
Date/Time
EST
Temp
°C
App
Temp
°C
Dew
Point
Rel
Hum
%
Delta-T
°C
Wind Press
QNH
hPa
Press
MSL
hPa
Rain
since 9 am
mm
Dir
 
Spd
km/h
Gust
km/h
Spd
kts
Gust
kts
24/11:30pm 5.1 -0.1 2.3 82 1.1 WSW 19 50 10 27 1008.3 1008.6 2.4
24/11:00pm 5.0 0.9 2.0 81 1.2 ENE 13 44 7 24 1007.9 1008.1 2.4
24/10:30pm 5.1 1.0 2.5 83 1.1 NNE 13 43 7 23 1007.5 1007.7 2.2
24/10:00pm 4.8 1.5 2.2 83 1.1 N 9 32 5 17 1007.5 1007.7 2.2
24/09:30pm 5.2 1.5 2.2 81 1.2 WSW 11 37 6 20 1007.3 1007.5 2.2
24/09:00pm 5.0 -0.2 2.4 83 1.1 WSW 19 41 10 22 1006.8 1007.0 2.2
24/08:30pm 4.8 -0.4 2.5 85 0.9 SW 19 50 10 27 1006.2 1006.4 2.2
24/08:00pm 4.4 -1.6 3.4 93 0.4 SSW 24 41 13 22 1006.0 1006.2 2.2
24/07:30pm 3.5 -3.9 1.7 88 0.7 SSW 30 61 16 33 1005.2 1005.5 1.6
24/07:26pm 5.0 -0.7 2.9 86 0.9 SSW 22 50 12 27 1005.2 1005.5 1.0
24/07:00pm 4.9 -0.4 2.9 87 0.8 SSW 20 52 11 28 1004.6 1004.9 1.0
24/06:34pm 4.4 -2.8 3.2 92 0.5 SW 30 50 16 27 1004.1 1004.3 1.0
24/06:30pm 4.2 -3.6 3.0 92 0.5 SW 33 50 18 27 1004.0 1004.2 0.8
24/06:07pm 5.2 -0.7 2.0 80 1.3 SW 22 69 12 37 1003.2 1003.4 0.2
24/06:00pm 5.7 0.3 1.4 74 1.7 WSW 19 39 10 21 1003.2 1003.4 0.2
24/05:30pm 5.8 0.2 1.5 74 1.7 WSW 20 41 11 22 1002.7 1002.9 0.2
24/05:00pm 5.9 1.0 1.8 75 1.7 SW 17 43 9 23 1002.1 1002.3 0.2
24/04:30pm 5.7 -0.2 1.8 76 1.6 SW 22 50 12 27 1001.1 1001.4 0.0
24/04:00pm 5.5 -0.7 2.2 79 1.4 SW 24 48 13 26 1000.6 1000.8 0.0
24/03:53pm 6.1 -0.8 2.4 77 1.5 SSW 28 69 15 37 1000.3 1000.5 0.0
24/03:47pm 6.2 1.1 3.2 81 1.3 SW 19 69 10 37 1000.1 1000.3 0.0
24/03:31pm 6.2 -0.6 3.0 80 1.3 SW 28 48 15 26 1000.1 1000.3 0.0
24/03:30pm 6.2 -0.6 3.0 80 1.3 SW 28 46 15 25 1000.1 1000.3 0.0
24/03:00pm 7.2 2.7 1.9 69 2.2 SW 15 35 8 19 999.7 999.9 0.0
24/02:30pm 7.7 4.4 2.6 70 2.2 WSW 9 24 5 13 999.2 999.4 0.0
24/02:00pm 7.3 4.2 1.6 67 2.4 NNW 7 24 4 13 998.9 999.1 0.0
24/01:30pm 7.2 3.8 1.9 69 2.2 WNW 9 26 5 14 998.7 998.9 0.0
24/01:00pm 7.2 4.2 1.7 68 2.3 N 7 20 4 11 998.3 998.5 0.0
24/12:30pm 6.9 3.1 1.8 70 2.1 WNW 11 30 6 16 997.9 998.1 0.0
24/12:00pm 6.2 2.4 1.7 73 1.9 NW 11 26 6 14 997.7 997.9 0.0
24/11:30am 6.4 3.8 3.2 80 1.4 NNW 6 20 3 11 997.6 997.8 0.0
24/11:00am 5.6 2.8 2.9 83 1.1 WSW 7 22 4 12 997.5 997.6 0.0
24/10:30am 5.4 2.2 2.9 84 1.0 WSW 9 20 5 11 997.3 997.4 0.0
24/10:00am 5.8 2.9 1.2 72 1.9 W 6 20 3 11 996.7 996.9 0.0
24/09:30am 5.9 2.9 1.1 71 1.9 WNW 6 17 3 9 996.5 996.7 0.0
24/09:00am 5.7 2.7 0.7 70 2.0 SSE 6 13 3 7 996.0 996.2 -

Other Formats:

Comma delimited format used in spreadsheet applications
http://www.bom.gov.au/fwo/IDT60801/IDT60801.95986.axf

JavaScript Object Notation format (JSON) in row-major order
http://www.bom.gov.au/fwo/IDT60801/IDT60801.95986.json